Time;durP1;ratioP1;P1;durP2;ratioP2;P2;SDS_P1;SDS_P2;PMS_P1;PMS_P2;Temp;Humidity;BMP_temperature;BMP_pressure;BME280_temperature;BME280_humidity;BME280_pressure;Samples;Min_cycle;Max_cycle;Signal;HPM_P1;HPM_P2
2023/08/20 00:00:56;;;;;;;10.73;8.97;;;22.00;99.90;;;;;;5069828;28;20492;-80
2023/08/20 00:03:23;;;;;;;16.03;9.60;;;22.00;99.90;;;;;;5034986;28;20474;-79
2023/08/20 00:05:49;;;;;;;15.27;10.10;;;21.90;99.90;;;;;;5051686;28;20442;-80
2023/08/20 00:08:14;;;;;;;9.93;8.93;;;21.90;99.90;;;;;;5051355;28;20907;-79
2023/08/20 00:10:40;;;;;;;19.60;8.63;;;21.90;99.90;;;;;;5051084;28;20439;-79
2023/08/20 00:13:05;;;;;;;13.17;9.27;;;21.90;99.90;;;;;;5071631;28;20736;-79
2023/08/20 00:15:31;;;;;;;15.37;8.00;;;21.90;99.90;;;;;;5074247;28;20212;-80
2023/08/20 00:17:57;;;;;;;8.67;7.83;;;22.00;99.90;;;;;;5055972;28;20192;-79
2023/08/20 00:20:24;;;;;;;8.73;7.83;;;21.90;99.90;;;;;;5055444;28;20277;-79
2023/08/20 00:22:50;;;;;;;13.03;9.57;;;21.80;99.90;;;;;;5073687;28;20576;-79
2023/08/20 00:25:17;;;;;;;18.03;10.63;;;21.80;99.90;;;;;;5055517;28;21023;-79
2023/08/20 00:27:43;;;;;;;11.53;9.00;;;21.70;99.90;;;;;;5073642;28;20439;-79
2023/08/20 00:30:10;;;;;;;14.03;9.77;;;21.60;99.90;;;;;;5073555;28;20794;-79
2023/08/20 00:32:36;;;;;;;14.77;9.80;;;21.50;99.90;;;;;;5073718;28;20995;-79
2023/08/20 00:35:03;;;;;;;14.63;10.60;;;21.40;99.90;;;;;;5055578;28;20510;-80
2023/08/20 00:37:30;;;;;;;11.20;9.80;;;21.50;99.90;;;;;;5073699;28;20419;-80
2023/08/20 00:39:57;;;;;;;15.10;10.30;;;21.40;99.90;;;;;;5055853;28;20430;-78
2023/08/20 00:42:25;;;;;;;18.00;10.07;;;21.40;99.90;;;;;;5073478;28;20453;-79
2023/08/20 00:44:51;;;;;;;18.23;10.20;;;21.40;99.90;;;;;;5073456;28;20483;-79
2023/08/20 00:47:18;;;;;;;12.53;9.73;;;21.40;99.90;;;;;;5073706;28;20556;-79
2023/08/20 00:49:45;;;;;;;15.67;9.20;;;21.40;99.90;;;;;;5038712;28;20432;-79
2023/08/20 00:52:13;;;;;;;14.77;9.10;;;21.50;99.90;;;;;;5038477;28;20474;-79
2023/08/20 00:54:45;;;;;;;12.33;9.03;;;21.50;99.90;;;;;;5073024;28;20972;-79
2023/08/20 00:57:11;;;;;;;12.87;10.40;;;21.60;99.90;;;;;;5055529;28;20453;-77
2023/08/20 00:59:37;;;;;;;13.47;10.03;;;21.50;99.90;;;;;;5072829;28;21033;-76
2023/08/20 01:02:03;;;;;;;11.90;10.67;;;21.50;99.90;;;;;;5072683;28;20539;-76
2023/08/20 01:04:30;;;;;;;14.10;9.70;;;21.50;99.90;;;;;;5054428;28;20212;-76
2023/08/20 01:07:21;;;;;;;18.60;10.33;;;21.60;99.90;;;;;;5072883;28;20407;-78
2023/08/20 01:10:14;;;;;;;18.50;10.87;;;21.50;99.90;;;;;;5074851;28;20409;-78
2023/08/20 01:12:43;;;;;;;13.40;9.80;;;21.40;99.90;;;;;;5057578;28;20425;-78
2023/08/20 01:15:13;;;;;;;13.33;9.07;;;21.40;99.90;;;;;;5075158;28;20453;-79
2023/08/20 01:17:40;;;;;;;16.97;9.90;;;21.40;99.90;;;;;;5056816;28;20529;-78
2023/08/20 01:20:07;;;;;;;11.37;10.17;;;21.50;99.90;;;;;;5040425;28;20861;-78
2023/08/20 01:23:02;;;;;;;12.87;10.73;;;21.50;99.90;;;;;;5056628;28;20461;-78
2023/08/20 01:25:28;;;;;;;11.80;10.60;;;21.40;99.90;;;;;;5054956;28;20425;-78
2023/08/20 01:28:23;;;;;;;10.50;9.43;;;21.40;99.90;;;;;;5055693;28;20433;-78
2023/08/20 01:30:49;;;;;;;21.63;11.37;;;21.40;99.90;;;;;;5055429;28;20172;-78
2023/08/20 01:33:15;;;;;;;15.07;9.97;;;21.50;99.90;;;;;;5056647;28;20458;-78
2023/08/20 01:35:41;;;;;;;11.03;9.80;;;21.50;99.90;;;;;;5074564;28;20500;-77
2023/08/20 01:38:07;;;;;;;13.40;11.03;;;21.50;99.90;;;;;;5074704;28;20430;-77
2023/08/20 01:40:33;;;;;;;16.13;10.73;;;21.50;99.90;;;;;;5056555;28;20696;-77
2023/08/20 01:42:59;;;;;;;17.33;10.30;;;21.60;99.90;;;;;;5074409;28;20448;-78
2023/08/20 01:45:26;;;;;;;16.53;10.87;;;21.60;99.90;;;;;;5072324;28;20449;-76
2023/08/20 01:47:51;;;;;;;15.23;9.90;;;21.50;99.90;;;;;;5053785;28;20203;-79
2023/08/20 01:50:17;;;;;;;15.80;11.20;;;21.50;99.90;;;;;;5071739;28;20911;-77
2023/08/20 01:52:42;;;;;;;13.97;10.33;;;21.50;99.90;;;;;;5071591;28;20181;-77
2023/08/20 01:55:08;;;;;;;12.43;10.30;;;21.50;99.90;;;;;;5037049;28;20239;-77
2023/08/20 01:57:34;;;;;;;12.20;9.93;;;21.50;99.90;;;;;;5071715;28;20201;-77
2023/08/20 02:00:00;;;;;;;12.17;10.10;;;21.50;99.90;;;;;;5054691;28;20189;-77
2023/08/20 02:02:25;;;;;;;12.07;10.87;;;21.50;99.90;;;;;;5071470;28;20244;-77
2023/08/20 02:04:51;;;;;;;12.40;11.13;;;21.40;99.90;;;;;;5053092;28;20273;-77
2023/08/20 02:07:17;;;;;;;20.40;11.57;;;21.40;99.90;;;;;;5053700;28;20172;-77
2023/08/20 02:09:42;;;;;;;15.03;12.07;;;21.30;99.90;;;;;;5072969;28;20183;-78
2023/08/20 02:12:08;;;;;;;14.90;12.03;;;21.20;99.90;;;;;;5074029;28;20189;-78
2023/08/20 02:14:37;;;;;;;17.43;11.73;;;21.20;99.90;;;;;;5056504;28;20585;-78
2023/08/20 02:17:03;;;;;;;15.03;11.43;;;21.20;99.90;;;;;;5074364;28;20200;-77
2023/08/20 02:19:29;;;;;;;13.40;11.30;;;21.10;99.90;;;;;;5073058;28;20443;-76
2023/08/20 02:21:55;;;;;;;19.07;12.13;;;21.10;99.90;;;;;;5072130;28;20532;-77
2023/08/20 02:24:20;;;;;;;18.77;12.47;;;21.10;99.90;;;;;;5053976;28;20234;-77
2023/08/20 02:26:46;;;;;;;18.10;11.93;;;21.10;99.90;;;;;;5071999;28;20187;-79
2023/08/20 02:29:12;;;;;;;13.87;11.80;;;21.00;99.90;;;;;;5054628;28;20473;-78
2023/08/20 02:31:37;;;;;;;12.00;10.70;;;21.00;99.90;;;;;;5072317;28;20185;-78
2023/08/20 02:34:03;;;;;;;16.07;12.63;;;21.10;99.90;;;;;;5054182;28;20217;-79
2023/08/20 02:36:29;;;;;;;16.73;12.70;;;20.90;99.90;;;;;;5037098;28;20539;-79
2023/08/20 02:38:54;;;;;;;24.20;12.53;;;20.70;99.90;;;;;;5071632;28;20228;-79
2023/08/20 02:41:20;;;;;;;16.50;12.80;;;20.60;99.90;;;;;;5053631;28;20461;-78
2023/08/20 02:43:46;;;;;;;19.27;12.77;;;20.60;99.90;;;;;;5054277;28;20294;-78
2023/08/20 02:46:11;;;;;;;17.53;12.00;;;20.70;99.90;;;;;;5054509;28;20644;-79
2023/08/20 02:48:37;;;;;;;21.60;12.27;;;20.70;99.90;;;;;;5061873;28;20191;-82
2023/08/20 02:51:03;;;;;;;17.37;12.17;;;20.70;99.90;;;;;;5081518;28;20194;-78
2023/08/20 02:53:29;;;;;;;15.23;12.30;;;20.60;99.90;;;;;;5053812;28;20220;-78
2023/08/20 02:55:56;;;;;;;19.43;11.13;;;20.70;99.90;;;;;;5071637;28;20257;-78
2023/08/20 02:58:21;;;;;;;15.57;11.60;;;20.70;99.90;;;;;;5071558;28;20428;-78
2023/08/20 03:00:47;;;;;;;11.90;9.40;;;20.80;99.90;;;;;;5071342;28;20465;-78
2023/08/20 03:03:13;;;;;;;21.20;11.27;;;20.90;99.90;;;;;;5053448;28;20215;-79
2023/08/20 03:05:39;;;;;;;23.30;12.67;;;20.90;99.90;;;;;;5053465;28;20479;-78
2023/08/20 03:08:05;;;;;;;19.50;12.70;;;20.80;99.90;;;;;;5070835;28;20417;-80
2023/08/20 03:10:31;;;;;;;17.33;12.67;;;20.50;99.90;;;;;;5070575;28;21142;-78
2023/08/20 03:12:58;;;;;;;15.70;13.13;;;20.40;99.90;;;;;;5052422;28;20957;-78
2023/08/20 03:15:24;;;;;;;15.70;12.90;;;20.40;99.90;;;;;;5071166;28;20425;-78
2023/08/20 03:17:49;;;;;;;13.43;11.20;;;20.40;99.90;;;;;;5036502;28;20424;-78
2023/08/20 03:20:15;;;;;;;19.37;12.70;;;20.40;99.90;;;;;;5070973;28;20183;-78
2023/08/20 03:22:41;;;;;;;13.57;12.13;;;20.50;99.90;;;;;;5070492;28;20218;-77
2023/08/20 03:25:07;;;;;;;18.07;12.20;;;20.60;99.90;;;;;;5069878;28;20237;-77
2023/08/20 03:27:32;;;;;;;13.20;11.23;;;20.60;99.90;;;;;;5069538;28;20179;-77
2023/08/20 03:29:58;;;;;;;16.00;11.23;;;20.60;99.90;;;;;;5069755;28;20480;-78
2023/08/20 03:32:24;;;;;;;13.17;11.23;;;20.70;99.90;;;;;;5069627;28;20198;-79
2023/08/20 03:34:50;;;;;;;14.10;10.67;;;20.60;99.90;;;;;;5069198;28;20198;-77
2023/08/20 03:37:16;;;;;;;12.33;10.80;;;20.60;99.90;;;;;;5051404;28;20191;-78
2023/08/20 03:39:41;;;;;;;15.50;11.37;;;20.60;99.90;;;;;;5069740;28;20428;-77
2023/08/20 03:42:07;;;;;;;16.90;11.23;;;20.50;99.90;;;;;;5069136;28;20453;-77
2023/08/20 03:44:33;;;;;;;17.80;11.03;;;20.50;99.90;;;;;;5069348;28;20849;-77
2023/08/20 03:46:58;;;;;;;16.43;12.23;;;20.50;99.90;;;;;;5068323;28;20198;-76
2023/08/20 03:49:24;;;;;;;21.20;13.33;;;20.40;99.90;;;;;;5069212;28;20183;-75
2023/08/20 03:51:49;;;;;;;29.47;13.20;;;20.40;99.90;;;;;;5051017;28;20192;-76
2023/08/20 03:54:15;;;;;;;22.53;12.60;;;20.40;99.90;;;;;;5033970;28;20771;-77
2023/08/20 03:56:41;;;;;;;19.33;12.87;;;20.30;99.90;;;;;;5069309;28;20195;-77
2023/08/20 03:59:06;;;;;;;17.43;12.60;;;20.30;99.90;;;;;;5068805;28;20273;-77
2023/08/20 04:01:32;;;;;;;13.97;12.47;;;20.20;99.90;;;;;;5050956;28;20211;-77
2023/08/20 04:03:58;;;;;;;15.73;11.10;;;20.30;99.90;;;;;;5050805;28;20234;-76
2023/08/20 04:06:23;;;;;;;16.80;12.00;;;20.40;99.90;;;;;;5071076;28;20539;-78
2023/08/20 04:08:49;;;;;;;15.63;12.43;;;20.40;99.90;;;;;;5052651;28;20179;-77
2023/08/20 04:11:15;;;;;;;14.40;12.53;;;20.40;99.90;;;;;;5071063;28;20197;-77
2023/08/20 04:13:43;;;;;;;15.13;12.07;;;20.50;99.90;;;;;;5052786;28;20301;-77
2023/08/20 04:16:09;;;;;;;15.03;12.60;;;20.50;99.90;;;;;;5050952;28;20592;-78
2023/08/20 04:18:34;;;;;;;14.10;11.30;;;20.50;99.90;;;;;;5068706;28;20502;-77
2023/08/20 04:21:00;;;;;;;13.03;10.73;;;20.60;99.90;;;;;;5034509;28;20215;-77
2023/08/20 04:23:26;;;;;;;13.70;11.70;;;20.60;99.90;;;;;;5069556;28;20207;-77
2023/08/20 04:25:52;;;;;;;12.50;11.03;;;20.50;99.90;;;;;;5033998;28;20838;-75
2023/08/20 04:28:17;;;;;;;16.20;12.90;;;20.60;99.90;;;;;;5068555;28;20190;-76
2023/08/20 04:30:43;;;;;;;13.07;11.77;;;20.50;99.90;;;;;;5068715;28;20202;-76
2023/08/20 04:33:09;;;;;;;17.37;11.83;;;20.40;99.90;;;;;;5068385;28;20185;-76
2023/08/20 04:35:35;;;;;;;15.70;13.23;;;20.40;99.90;;;;;;5068560;28;20419;-75
2023/08/20 04:38:01;;;;;;;17.73;13.00;;;20.40;99.90;;;;;;5068505;28;20185;-75
2023/08/20 04:40:26;;;;;;;14.00;12.33;;;20.40;99.90;;;;;;5068525;28;20516;-77
2023/08/20 04:42:53;;;;;;;14.70;11.53;;;20.40;99.90;;;;;;5068274;28;20549;-77
2023/08/20 04:45:19;;;;;;;13.43;11.53;;;20.40;99.90;;;;;;5050431;28;20472;-77
2023/08/20 04:47:46;;;;;;;15.37;11.90;;;20.40;99.90;;;;;;5068299;28;20186;-77
2023/08/20 04:50:13;;;;;;;18.83;15.60;;;20.50;99.90;;;;;;5050224;28;20425;-77
2023/08/20 04:52:39;;;;;;;14.37;11.53;;;20.50;99.90;;;;;;5050131;28;20453;-76
2023/08/20 04:55:06;;;;;;;16.20;12.17;;;20.40;99.90;;;;;;5067994;28;20461;-76
2023/08/20 04:57:31;;;;;;;15.90;12.77;;;20.40;99.90;;;;;;5068384;28;20974;-77
2023/08/20 04:59:57;;;;;;;14.43;11.53;;;20.50;99.90;;;;;;5071545;28;20430;-78
2023/08/20 05:02:23;;;;;;;15.90;11.83;;;20.50;99.90;;;;;;5054346;28;20357;-76
2023/08/20 05:04:49;;;;;;;13.40;11.80;;;20.60;99.90;;;;;;5072105;28;20210;-76
2023/08/20 05:07:14;;;;;;;17.57;12.00;;;20.60;99.90;;;;;;5072138;28;20186;-76
2023/08/20 05:09:40;;;;;;;13.80;11.90;;;20.60;99.90;;;;;;5071964;28;20422;-77
2023/08/20 05:12:06;;;;;;;17.13;12.37;;;20.50;99.90;;;;;;5071904;28;20278;-75
2023/08/20 05:14:31;;;;;;;26.17;13.40;;;20.60;99.90;;;;;;5072064;28;20211;-75
2023/08/20 05:16:57;;;;;;;14.10;12.63;;;20.60;99.90;;;;;;5071521;28;20421;-75
2023/08/20 05:19:23;;;;;;;18.80;12.13;;;20.60;99.90;;;;;;5053681;28;20234;-76
2023/08/20 05:21:48;;;;;;;14.50;11.80;;;20.70;99.90;;;;;;5072531;28;20212;-77
2023/08/20 05:24:14;;;;;;;19.83;13.20;;;20.70;99.90;;;;;;5054281;28;20444;-77
2023/08/20 05:26:40;;;;;;;14.07;12.07;;;20.70;99.90;;;;;;5072014;28;20693;-77
2023/08/20 05:29:05;;;;;;;14.20;11.80;;;20.80;99.90;;;;;;5072635;28;20191;-79
2023/08/20 05:31:31;;;;;;;13.10;11.80;;;20.80;99.90;;;;;;5037778;28;20194;-79
2023/08/20 05:33:56;;;;;;;12.90;11.70;;;20.90;99.90;;;;;;5037539;28;20874;-79
2023/08/20 05:36:23;;;;;;;14.60;11.40;;;21.00;99.90;;;;;;5072600;28;20220;-77
2023/08/20 05:38:49;;;;;;;14.17;11.63;;;21.20;99.90;;;;;;5054144;28;20187;-76
2023/08/20 05:41:15;;;;;;;13.40;10.20;;;21.30;99.90;;;;;;5071259;28;20468;-76
2023/08/20 05:43:40;;;;;;;14.00;9.80;;;21.50;99.90;;;;;;5071495;28;20225;-77
2023/08/20 05:46:06;;;;;;;12.90;11.20;;;21.60;99.90;;;;;;5071344;28;20209;-77
2023/08/20 05:48:31;;;;;;;19.27;12.80;;;21.60;99.90;;;;;;5036485;28;20652;-76
2023/08/20 05:50:57;;;;;;;18.70;10.90;;;21.60;99.90;;;;;;5071388;28;20265;-79
2023/08/20 05:53:22;;;;;;;13.80;10.93;;;21.70;99.90;;;;;;5053732;28;20701;-79
2023/08/20 05:55:48;;;;;;;13.90;11.07;;;21.70;99.90;;;;;;5072065;28;20174;-79
2023/08/20 05:58:14;;;;;;;14.73;11.57;;;21.80;99.90;;;;;;5071935;28;20198;-78
2023/08/20 06:00:40;;;;;;;12.57;11.27;;;21.80;99.90;;;;;;5053385;28;20192;-79
2023/08/20 06:03:07;;;;;;;13.93;10.77;;;21.90;99.90;;;;;;5071472;28;20202;-78
2023/08/20 06:05:33;;;;;;;13.20;11.63;;;22.00;99.90;;;;;;5053996;28;20433;-78
2023/08/20 06:07:59;;;;;;;13.10;10.70;;;22.10;99.90;;;;;;5071701;28;20418;-78
2023/08/20 06:10:24;;;;;;;15.40;10.37;;;22.20;99.90;;;;;;5070551;28;20413;-78
2023/08/20 06:12:50;;;;;;;17.43;11.30;;;22.30;99.90;;;;;;5071181;28;20238;-79
2023/08/20 06:15:16;;;;;;;13.67;10.73;;;22.50;99.90;;;;;;5071057;28;20291;-79
2023/08/20 06:17:41;;;;;;;15.40;11.13;;;22.60;99.90;;;;;;5071136;28;20641;-78
2023/08/20 06:20:08;;;;;;;18.60;10.63;;;22.70;99.90;;;;;;5053187;28;20233;-78
2023/08/20 06:22:34;;;;;;;16.67;11.50;;;22.80;99.90;;;;;;5052951;28;20222;-79
2023/08/20 06:25:00;;;;;;;14.00;10.63;;;22.80;99.90;;;;;;5053179;28;20460;-79
2023/08/20 06:27:25;;;;;;;14.20;11.40;;;22.90;99.90;;;;;;5053536;28;21133;-78
2023/08/20 06:29:51;;;;;;;13.13;11.07;;;23.10;99.90;;;;;;5053514;28;20180;-79
2023/08/20 06:32:16;;;;;;;15.53;12.53;;;23.10;99.90;;;;;;5071743;28;20716;-78
2023/08/20 06:34:42;;;;;;;13.90;11.37;;;23.20;99.90;;;;;;5071443;28;20213;-78
2023/08/20 06:37:08;;;;;;;16.87;11.20;;;23.30;99.90;;;;;;5053638;28;20193;-78
2023/08/20 06:39:33;;;;;;;12.80;11.50;;;23.30;99.90;;;;;;5053227;28;20203;-79
2023/08/20 06:41:59;;;;;;;13.67;11.33;;;23.50;99.90;;;;;;5071424;28;20259;-79
2023/08/20 06:44:24;;;;;;;16.80;10.93;;;23.50;99.90;;;;;;5072858;28;20209;-79
2023/08/20 06:46:50;;;;;;;17.73;11.50;;;23.50;99.90;;;;;;5073755;28;20706;-79
2023/08/20 06:49:16;;;;;;;15.03;10.70;;;23.60;99.90;;;;;;5055466;28;20196;-79
2023/08/20 06:51:41;;;;;;;14.33;11.23;;;23.70;99.90;;;;;;5056347;28;20559;-79
2023/08/20 06:54:07;;;;;;;19.67;11.53;;;23.60;99.90;;;;;;5054639;28;20229;-79
2023/08/20 06:56:33;;;;;;;20.77;10.80;;;23.70;99.90;;;;;;5055608;28;20713;-78
2023/08/20 06:59:00;;;;;;;17.97;10.30;;;23.70;99.90;;;;;;5072381;28;20428;-79
2023/08/20 07:01:25;;;;;;;16.20;11.50;;;23.70;99.90;;;;;;5072576;28;20218;-79
2023/08/20 07:03:51;;;;;;;13.00;11.70;;;23.80;99.90;;;;;;5054648;28;20436;-79
2023/08/20 07:06:18;;;;;;;18.30;12.90;;;23.70;99.90;;;;;;5073510;28;20185;-80
2023/08/20 07:08:44;;;;;;;12.47;11.17;;;23.70;99.90;;;;;;5055091;28;20297;-79
2023/08/20 07:11:10;;;;;;;14.60;11.07;;;23.80;99.90;;;;;;5073748;28;20461;-79
2023/08/20 07:13:35;;;;;;;15.37;10.00;;;23.90;99.90;;;;;;5055753;28;20814;-79
2023/08/20 07:16:01;;;;;;;15.40;10.70;;;24.00;99.90;;;;;;5055556;28;20198;-80
2023/08/20 07:18:27;;;;;;;11.20;9.50;;;24.10;99.90;;;;;;5073980;28;20216;-79
2023/08/20 07:20:52;;;;;;;14.00;10.97;;;24.30;99.90;;;;;;5074705;28;20529;-79
2023/08/20 07:23:18;;;;;;;16.80;11.33;;;24.30;99.90;;;;;;5074232;28;20254;-79
2023/08/20 07:25:48;;;;;;;14.60;11.37;;;24.20;99.90;;;;;;5071992;28;20201;-79
2023/08/20 07:28:14;;;;;;;14.50;10.50;;;24.20;99.90;;;;;;5072872;28;20637;-80
2023/08/20 07:30:40;;;;;;;15.80;11.77;;;24.20;99.90;;;;;;5073725;28;20503;-80
2023/08/20 07:33:07;;;;;;;13.80;10.40;;;24.20;99.90;;;;;;5076058;28;20251;-80
2023/08/20 07:35:33;;;;;;;12.53;11.27;;;24.10;99.90;;;;;;5061862;28;20435;-80
2023/08/20 07:37:58;;;;;;;13.77;11.73;;;24.10;99.90;;;;;;5042284;28;20431;-79
2023/08/20 07:40:24;;;;;;;12.83;10.70;;;24.20;99.90;;;;;;5069538;28;20919;-79
2023/08/20 07:42:51;;;;;;;12.37;10.43;;;24.20;99.90;;;;;;5035161;28;20230;-79
2023/08/20 07:45:16;;;;;;;15.20;10.33;;;24.30;99.90;;;;;;5069466;28;20225;-79
2023/08/20 07:47:42;;;;;;;16.83;12.20;;;24.40;99.90;;;;;;5069249;28;20432;-79
2023/08/20 07:50:08;;;;;;;14.53;11.43;;;24.50;99.90;;;;;;5069267;28;20288;-79
2023/08/20 07:52:34;;;;;;;13.23;10.70;;;24.50;99.90;;;;;;5034494;28;20197;-80
2023/08/20 07:55:00;;;;;;;13.77;11.60;;;24.60;99.90;;;;;;5051542;28;20798;-80
2023/08/20 07:57:25;;;;;;;12.60;10.80;;;24.70;99.90;;;;;;5035140;28;20433;-80
2023/08/20 07:59:51;;;;;;;12.73;10.53;;;24.70;99.90;;;;;;5051407;28;20217;-80
2023/08/20 08:02:17;;;;;;;12.83;10.47;;;24.80;99.90;;;;;;5034389;28;20222;-80
2023/08/20 08:04:43;;;;;;;13.50;10.90;;;24.90;99.90;;;;;;5034152;28;20448;-81
2023/08/20 08:07:11;;;;;;;10.80;9.70;;;24.90;99.90;;;;;;5035581;28;20429;-81
2023/08/20 08:09:36;;;;;;;14.03;9.77;;;25.00;99.90;;;;;;5069745;28;20929;-81
2023/08/20 08:12:02;;;;;;;13.97;10.13;;;25.20;99.90;;;;;;5051917;28;20429;-80
2023/08/20 08:14:28;;;;;;;11.40;9.30;;;25.20;99.90;;;;;;5069299;28;20211;-80
2023/08/20 08:16:54;;;;;;;20.63;11.77;;;25.40;99.90;;;;;;5069503;28;20506;-80
2023/08/20 08:19:20;;;;;;;12.33;10.33;;;25.50;99.90;;;;;;5034413;28;20425;-81
2023/08/20 08:21:46;;;;;;;19.70;10.53;;;25.60;99.90;;;;;;5034357;28;20603;-81
2023/08/20 08:24:12;;;;;;;14.53;9.70;;;25.70;99.90;;;;;;5050998;28;20804;-81
2023/08/20 08:26:39;;;;;;;15.87;10.70;;;25.80;99.90;;;;;;5069194;28;20532;-81
2023/08/20 08:29:05;;;;;;;12.57;9.90;;;26.00;99.90;;;;;;5051166;28;20886;-81
2023/08/20 08:31:31;;;;;;;13.10;9.87;;;26.10;99.90;;;;;;5068481;28;20468;-81
2023/08/20 08:33:57;;;;;;;11.50;9.20;;;26.20;99.90;;;;;;5071132;28;20440;-82
2023/08/20 08:36:24;;;;;;;11.10;9.33;;;26.30;99.90;;;;;;5055176;28;20195;-81
2023/08/20 08:38:50;;;;;;;14.00;8.57;;;26.40;99.90;;;;;;5055310;28;20498;-82
2023/08/20 08:41:16;;;;;;;12.33;9.47;;;26.50;99.90;;;;;;5055058;28;20469;-81
2023/08/20 08:43:42;;;;;;;13.70;9.57;;;26.60;99.90;;;;;;5055121;28;20527;-81
2023/08/20 08:46:15;;;;;;;13.90;9.77;;;26.70;99.90;;;;;;5072606;28;20509;-82
2023/08/20 08:48:44;;;;;;;10.77;9.67;;;26.80;99.90;;;;;;5054589;28;20198;-81
2023/08/20 08:51:11;;;;;;;11.40;9.30;;;26.90;99.90;;;;;;5054430;28;20465;-81
2023/08/20 08:53:36;;;;;;;14.40;10.27;;;26.90;99.90;;;;;;5072417;28;20461;-81
2023/08/20 08:56:03;;;;;;;10.97;9.87;;;27.00;99.90;;;;;;5055127;28;20821;-82
2023/08/20 08:58:29;;;;;;;16.07;9.73;;;27.10;99.90;;;;;;5039352;28;20191;-81
2023/08/20 09:00:54;;;;;;;14.47;8.40;;;27.20;99.90;;;;;;5037783;28;20546;-82
2023/08/20 09:03:21;;;;;;;9.57;8.47;;;27.30;99.90;;;;;;5072278;28;20799;-82
2023/08/20 09:05:58;;;;;;;9.83;8.83;;;27.40;99.90;;;;;;5054089;28;20210;-81
2023/08/20 09:08:31;;;;;;;16.80;10.10;;;27.50;99.90;;;;;;5039123;28;20413;-81
2023/08/20 09:10:58;;;;;;;13.30;9.03;;;27.60;99.90;;;;;;5036998;28;20430;-81
2023/08/20 09:13:37;;;;;;;15.17;8.57;;;27.90;99.90;;;;;;5053851;28;20473;-81
2023/08/20 09:16:07;;;;;;;13.27;9.50;;;28.40;99.90;;;;;;5036961;28;20510;-82
2023/08/20 09:18:38;;;;;;;11.63;9.00;;;28.70;99.90;;;;;;5053176;28;20425;-81
2023/08/20 09:21:10;;;;;;;11.20;8.30;;;29.00;99.90;;;;;;5071673;28;21046;-81
2023/08/20 09:23:36;;;;;;;15.30;9.13;;;29.30;99.90;;;;;;5071873;28;20437;-81
2023/08/20 09:26:03;;;;;;;16.17;9.27;;;29.60;99.90;;;;;;5036343;28;20435;-82
2023/08/20 09:28:29;;;;;;;13.60;9.13;;;29.70;99.90;;;;;;5037030;28;20885;-82
2023/08/20 09:31:01;;;;;;;15.43;9.37;;;29.50;99.90;;;;;;5053410;28;20426;-81
2023/08/20 09:33:27;;;;;;;10.57;9.27;;;29.30;99.90;;;;;;5037411;28;20591;-81
2023/08/20 09:35:56;;;;;;;9.20;8.30;;;29.00;99.90;;;;;;5053736;28;20512;-81
2023/08/20 09:38:23;;;;;;;16.13;9.90;;;29.00;99.90;;;;;;5071438;28;20421;-82
2023/08/20 09:40:52;;;;;;;12.87;9.93;;;28.90;99.90;;;;;;5052870;28;20418;-81
2023/08/20 09:43:18;;;;;;;10.63;8.30;;;28.80;99.90;;;;;;5071475;28;21032;-81
2023/08/20 09:45:46;;;;;;;13.43;8.77;;;28.60;99.90;;;;;;5051910;28;20437;-81
2023/08/20 09:48:19;;;;;;;12.40;10.00;;;28.70;99.90;;;;;;5037193;28;20964;-81
2023/08/20 09:50:47;;;;;;;16.73;8.73;;;28.90;99.90;;;;;;5071426;28;20449;-82
2023/08/20 09:53:17;;;;;;;8.43;7.70;;;29.00;99.90;;;;;;5052877;28;20444;-82
2023/08/20 09:55:44;;;;;;;10.37;8.57;;;29.10;99.90;;;;;;5053142;28;20934;-81
2023/08/20 09:58:11;;;;;;;9.50;8.60;;;29.10;99.90;;;;;;5053073;28;20429;-82
2023/08/20 10:00:37;;;;;;;12.70;8.83;;;29.00;99.90;;;;;;5037073;28;20426;-81
2023/08/20 10:03:03;;;;;;;10.10;7.80;;;28.90;99.90;;;;;;5036650;28;20458;-81
2023/08/20 10:05:30;;;;;;;10.17;9.20;;;28.90;99.90;;;;;;5036921;28;20924;-81
2023/08/20 10:07:58;;;;;;;9.97;8.00;;;29.20;99.90;;;;;;5053800;28;20723;-81
2023/08/20 10:10:25;;;;;;;11.30;8.60;;;29.20;99.90;;;;;;5052705;28;20430;-81
2023/08/20 10:12:51;;;;;;;10.60;8.40;;;29.10;99.90;;;;;;5053430;28;20425;-81
2023/08/20 10:15:17;;;;;;;14.33;8.03;;;29.20;99.90;;;;;;5037388;28;20471;-81
2023/08/20 10:17:44;;;;;;;11.83;8.10;;;29.50;99.90;;;;;;5053793;28;20179;-82
2023/08/20 10:20:12;;;;;;;10.20;8.17;;;29.50;99.90;;;;;;5054043;28;20192;-81
2023/08/20 10:22:39;;;;;;;10.00;8.30;;;29.70;99.90;;;;;;5036918;28;20465;-82
2023/08/20 10:25:09;;;;;;;8.43;7.50;;;29.90;99.90;;;;;;5052385;28;20438;-81
2023/08/20 10:27:37;;;;;;;9.10;7.77;;;29.90;99.90;;;;;;5053320;28;20418;-80
2023/08/20 10:30:17;;;;;;;9.23;7.50;;;30.00;99.90;;;;;;5052970;28;20475;-81
2023/08/20 10:32:51;;;;;;;9.00;7.37;;;30.20;99.90;;;;;;5052999;28;20425;-79
2023/08/20 10:35:22;;;;;;;11.00;8.00;;;30.40;99.90;;;;;;5054183;28;20921;-82
2023/08/20 10:38:11;;;;;;;9.37;7.80;;;30.40;99.90;;;;;;5053600;28;20850;-79
2023/08/20 10:40:58;;;;;;;7.70;6.90;;;30.50;99.90;;;;;;5071095;28;20449;-78
2023/08/20 10:43:37;;;;;;;9.80;6.50;;;30.70;99.90;;;;;;5070486;28;20433;-82
2023/08/20 10:46:18;;;;;;;8.97;7.20;;;30.80;99.90;;;;;;5052992;28;20447;-80
2023/08/20 10:48:50;;;;;;;9.20;6.90;;;30.90;99.90;;;;;;5052958;28;20429;-81
2023/08/20 10:51:16;;;;;;;13.67;6.57;;;31.10;99.90;;;;;;5052952;28;20429;-79
2023/08/20 10:53:48;;;;;;;6.93;6.23;;;31.00;99.90;;;;;;5036756;28;20461;-80
2023/08/20 10:56:16;;;;;;;9.70;6.87;;;31.20;99.90;;;;;;5054358;28;20456;-83
2023/08/20 10:58:46;;;;;;;10.53;6.60;;;31.30;99.90;;;;;;5070504;28;20460;-81
2023/08/20 11:01:22;;;;;;;8.97;5.83;;;31.40;99.90;;;;;;5069904;28;20502;-79
2023/08/20 11:03:51;;;;;;;9.30;6.87;;;31.40;99.90;;;;;;5070164;28;20491;-80
2023/08/20 11:06:18;;;;;;;6.93;6.30;;;31.50;99.90;;;;;;5052227;28;20417;-80
2023/08/20 11:08:44;;;;;;;14.30;6.73;;;31.50;99.90;;;;;;5071601;28;20930;-81
2023/08/20 11:11:11;;;;;;;9.10;6.03;;;31.50;99.90;;;;;;5053761;28;20455;-81
2023/08/20 11:13:37;;;;;;;8.10;5.97;;;31.50;99.90;;;;;;5054003;28;20514;-82
2023/08/20 11:16:04;;;;;;;7.80;6.70;;;31.60;99.90;;;;;;5053651;28;20937;-82
2023/08/20 11:18:33;;;;;;;10.63;5.67;;;31.60;99.90;;;;;;5053997;28;20197;-82
2023/08/20 11:20:59;;;;;;;8.23;6.10;;;31.60;99.90;;;;;;5037976;28;20487;-80
2023/08/20 11:23:25;;;;;;;10.27;6.27;;;31.70;99.90;;;;;;5071615;28;20524;-81
2023/08/20 11:25:51;;;;;;;7.27;5.97;;;31.70;99.90;;;;;;5037365;28;20449;-81
2023/08/20 11:28:17;;;;;;;7.40;6.67;;;31.80;99.90;;;;;;5036520;28;20273;-81
2023/08/20 11:30:43;;;;;;;8.83;6.60;;;31.80;99.90;;;;;;5035064;28;20198;-80
2023/08/20 11:33:09;;;;;;;8.37;5.67;;;31.70;99.20;;;;;;5051019;28;20190;-80
2023/08/20 11:35:35;;;;;;;9.60;6.00;;;31.70;99.90;;;;;;5033896;28;20431;-81
2023/08/20 11:38:02;;;;;;;9.20;6.13;;;31.80;99.90;;;;;;5033829;28;20195;-82
2023/08/20 11:40:28;;;;;;;8.33;5.40;;;31.90;99.90;;;;;;5050218;28;20421;-80
2023/08/20 11:42:54;;;;;;;7.80;5.20;;;32.00;99.50;;;;;;5068440;28;20477;-78
2023/08/20 11:45:19;;;;;;;9.17;5.43;;;32.10;99.90;;;;;;5051020;28;20183;-79
2023/08/20 11:47:45;;;;;;;10.10;5.57;;;32.20;98.10;;;;;;5068472;28;20207;-78
2023/08/20 11:50:10;;;;;;;15.17;5.50;;;32.20;98.10;;;;;;5068487;28;20898;-79
2023/08/20 11:52:39;;;;;;;7.17;5.60;;;32.30;98.00;;;;;;5050105;28;20191;-80
2023/08/20 11:55:06;;;;;;;10.80;6.40;;;32.30;99.60;;;;;;5068023;28;20223;-77
2023/08/20 11:57:32;;;;;;;7.10;5.30;;;32.30;98.90;;;;;;5067500;28;20414;-78
2023/08/20 12:00:07;;;;;;;9.70;5.47;;;32.50;99.90;;;;;;5067586;28;20424;-78
2023/08/20 12:02:32;;;;;;;5.93;5.03;;;32.60;99.90;;;;;;5049123;28;20882;-77
2023/08/20 12:04:59;;;;;;;13.43;6.20;;;32.60;99.90;;;;;;5049658;28;20432;-79
2023/08/20 12:07:28;;;;;;;10.27;5.90;;;32.70;98.90;;;;;;5066986;28;20179;-78
2023/08/20 12:09:55;;;;;;;13.30;5.60;;;32.90;99.30;;;;;;5049333;28;20424;-79
2023/08/20 12:12:21;;;;;;;10.17;5.90;;;33.00;98.40;;;;;;5067817;28;20425;-81
2023/08/20 12:14:47;;;;;;;10.30;6.90;;;32.90;97.00;;;;;;5050131;28;21020;-81
2023/08/20 12:17:12;;;;;;;11.23;5.90;;;32.80;97.00;;;;;;5050246;28;20425;-81
2023/08/20 12:19:38;;;;;;;6.00;5.30;;;32.80;97.60;;;;;;5068143;28;20285;-82
2023/08/20 12:22:04;;;;;;;10.20;5.90;;;32.80;97.30;;;;;;5049785;28;20241;-82
2023/08/20 12:24:29;;;;;;;7.87;6.03;;;32.80;96.20;;;;;;5049495;28;20222;-81
2023/08/20 12:26:55;;;;;;;12.40;6.43;;;32.70;97.00;;;;;;5032876;28;20748;-81
2023/08/20 12:29:21;;;;;;;9.70;5.97;;;32.90;96.40;;;;;;5049827;28;20191;-81
2023/08/20 12:31:46;;;;;;;6.80;5.53;;;32.80;96.80;;;;;;5049723;28;20183;-82